createdAt,value
2018-11-25T00:09:22.937Z,50.60
2018-11-25T00:19:37.821Z,50.27
2018-11-25T00:29:53.476Z,49.47
2018-11-25T00:40:09.396Z,46.97
2018-11-25T00:50:25.343Z,43.13
2018-11-25T01:00:40.284Z,43.77
2018-11-25T01:10:55.540Z,40.53
2018-11-25T01:21:11.039Z,42.90
2018-11-25T01:31:26.141Z,53.00
2018-11-25T01:41:41.980Z,56.53
2018-11-25T01:51:57.107Z,50.80
2018-11-25T02:02:12.685Z,44.13
2018-11-25T02:12:28.183Z,45.23
2018-11-25T02:22:43.262Z,44.17
2018-11-25T02:32:58.489Z,41.43
2018-11-25T02:43:14.091Z,49.30
2018-11-25T02:53:29.164Z,56.33
2018-11-25T03:03:44.319Z,52.97
2018-11-25T03:13:59.912Z,49.45
2018-11-25T03:24:15.037Z,46.30
2018-11-25T03:34:30.396Z,46.17
2018-11-25T03:44:45.972Z,44.73
2018-11-25T03:55:00.970Z,45.20
2018-11-25T04:05:16.209Z,50.50
2018-11-25T04:15:31.542Z,41.80
2018-11-25T04:25:46.598Z,47.67
2018-11-25T04:36:12.089Z,43.03
2018-11-25T04:46:27.180Z,50.43
2018-11-25T04:56:43.477Z,39.93
2018-11-25T05:07:18.304Z,41.87
2018-11-25T05:17:33.962Z,44.00
2018-11-25T05:27:49.336Z,50.30
2018-11-25T05:38:04.274Z,53.33
2018-11-25T05:48:20.021Z,63.60
2018-11-25T05:58:34.767Z,59.60
2018-11-25T06:08:50.266Z,57.17
2018-11-25T06:19:05.675Z,56.40
2018-11-25T06:29:22.323Z,60.10
2018-11-25T06:39:37.027Z,54.50
2018-11-25T06:49:52.967Z,57.97
2018-11-25T07:00:15.527Z,50.40
2018-11-25T07:10:30.632Z,48.87
2018-11-25T07:20:45.501Z,47.57
2018-11-25T07:31:00.853Z,53.57
2018-11-25T07:41:16.409Z,53.87
2018-11-25T07:51:31.287Z,49.83
2018-11-25T08:01:46.725Z,52.75
2018-11-25T08:12:02.330Z,52.30
2018-11-25T08:22:18.631Z,55.30
2018-11-25T08:32:33.964Z,53.97
2018-11-25T08:42:51.186Z,58.68
2018-11-25T08:53:06.801Z,56.20
2018-11-25T09:14:00.008Z,56.80
2018-11-25T09:24:16.299Z,60.97
2018-11-25T09:34:31.144Z,53.17
2018-11-25T09:44:48.113Z,53.00
2018-11-25T09:55:10.584Z,53.98
2018-11-25T10:05:25.578Z,56.70
2018-11-25T10:15:46.595Z,60.87
2018-11-25T10:26:02.140Z,75.70
2018-11-25T10:46:40.816Z,76.37
2018-11-25T10:56:58.377Z,96.82
2018-11-25T11:07:20.914Z,99.52
2018-11-25T11:17:36.368Z,91.17
2018-11-25T11:38:27.157Z,82.73
2018-11-25T11:48:43.688Z,68.53
2018-11-25T11:59:00.659Z,62.13
2018-11-25T12:09:17.937Z,54.53
2018-11-25T12:19:33.909Z,53.40
2018-11-25T12:29:50.312Z,58.37
2018-11-25T12:40:15.947Z,59.80
2018-11-25T12:50:34.255Z,54.93
2018-11-25T13:00:53.534Z,60.23
2018-11-25T13:11:22.803Z,60.50
2018-11-25T13:21:40.185Z,55.27
2018-11-25T13:53:00.286Z,51.03
2018-11-25T14:03:30.153Z,48.10
2018-11-25T14:13:47.766Z,52.37
2018-11-25T14:24:06.311Z,48.56
2018-11-25T14:34:23.234Z,50.77
2018-11-25T14:44:39.597Z,47.67
2018-11-25T14:55:15.841Z,54.27
2018-11-25T15:07:24.227Z,51.37
2018-11-25T15:17:50.798Z,50.05
2018-11-25T15:28:11.456Z,51.57
2018-11-25T15:38:36.076Z,54.67
2018-11-25T15:48:51.600Z,55.80
2018-11-25T15:59:06.520Z,83.03
2018-11-25T16:09:22.074Z,79.73
2018-11-25T16:19:37.294Z,76.60
2018-11-25T16:30:09.651Z,75.10
2018-11-25T17:14:03.675Z,70.30
2018-11-25T17:24:18.896Z,69.35
2018-11-25T17:34:35.112Z,70.40
2018-11-25T17:44:51.260Z,71.53
2018-11-25T17:55:08.117Z,70.57
2018-11-25T18:05:24.803Z,71.63
2018-11-25T18:15:39.665Z,67.60
2018-11-25T18:25:54.856Z,69.27
2018-11-25T18:36:11.395Z,69.20
2018-11-25T18:46:27.430Z,66.97
2018-11-25T18:56:42.981Z,68.63
2018-11-25T19:06:57.926Z,65.67
2018-11-25T19:17:15.381Z,71.30
2018-11-25T19:27:30.347Z,76.77
2018-11-25T19:37:46.216Z,79.37
2018-11-25T19:48:01.720Z,77.73
2018-11-25T19:58:17.265Z,76.27
2018-11-25T20:08:32.761Z,75.17
2018-11-25T20:18:48.982Z,73.20
2018-11-25T20:29:05.022Z,68.13
2018-11-25T20:39:25.709Z,74.30
2018-11-25T20:49:41.534Z,83.60
2018-11-25T20:59:56.665Z,80.90
2018-11-25T21:10:12.617Z,85.87
2018-11-25T21:20:27.344Z,76.30
2018-11-25T21:30:42.844Z,84.30
2018-11-25T21:40:58.592Z,82.97
2018-11-25T21:51:13.924Z,80.20
2018-11-25T22:01:31.483Z,80.57
2018-11-25T22:11:47.189Z,78.03
2018-11-25T22:22:04.619Z,86.13
2018-11-25T22:32:19.831Z,87.00
2018-11-25T22:42:35.548Z,77.67
2018-11-25T22:52:50.883Z,74.10
2018-11-25T23:03:06.798Z,71.80
2018-11-25T23:13:21.685Z,79.20
2018-11-25T23:23:36.780Z,78.45
2018-11-25T23:33:52.058Z,83.87
2018-11-25T23:44:07.338Z,87.23
2018-11-25T23:54:22.699Z,85.97
